sensor_id;sensor_type;location;lat;lon;timestamp;P1;durP1;ratioP1;P2;durP2;ratioP2
21416;SDS011;10869;52.238;10.716;2024-03-08T00:01:53;38.03;;;22.63;;
21416;SDS011;10869;52.238;10.716;2024-03-08T00:04:19;43.07;;;23.93;;
21416;SDS011;10869;52.238;10.716;2024-03-08T00:06:44;46.80;;;24.17;;
21416;SDS011;10869;52.238;10.716;2024-03-08T00:09:11;43.93;;;24.80;;
21416;SDS011;10869;52.238;10.716;2024-03-08T00:11:37;41.07;;;22.87;;
21416;SDS011;10869;52.238;10.716;2024-03-08T00:14:03;41.77;;;21.83;;
21416;SDS011;10869;52.238;10.716;2024-03-08T00:19:53;37.30;;;22.73;;
21416;SDS011;10869;52.238;10.716;2024-03-08T00:22:19;41.97;;;22.60;;
21416;SDS011;10869;52.238;10.716;2024-03-08T00:24:45;38.17;;;21.80;;
21416;SDS011;10869;52.238;10.716;2024-03-08T00:27:11;37.30;;;22.23;;
21416;SDS011;10869;52.238;10.716;2024-03-08T00:29:37;38.63;;;23.77;;
21416;SDS011;10869;52.238;10.716;2024-03-08T00:32:04;38.37;;;24.10;;
21416;SDS011;10869;52.238;10.716;2024-03-08T00:34:30;41.17;;;24.33;;
21416;SDS011;10869;52.238;10.716;2024-03-08T00:36:56;42.80;;;25.83;;
21416;SDS011;10869;52.238;10.716;2024-03-08T00:39:23;40.93;;;22.03;;
21416;SDS011;10869;52.238;10.716;2024-03-08T00:41:49;36.17;;;23.77;;
21416;SDS011;10869;52.238;10.716;2024-03-08T00:44:15;42.80;;;23.40;;
21416;SDS011;10869;52.238;10.716;2024-03-08T00:46:40;41.93;;;24.43;;
21416;SDS011;10869;52.238;10.716;2024-03-08T00:49:07;43.07;;;25.03;;
21416;SDS011;10869;52.238;10.716;2024-03-08T00:51:33;42.00;;;23.63;;
21416;SDS011;10869;52.238;10.716;2024-03-08T00:53:59;43.43;;;23.13;;
21416;SDS011;10869;52.238;10.716;2024-03-08T00:56:24;42.53;;;24.47;;
21416;SDS011;10869;52.238;10.716;2024-03-08T00:58:50;41.50;;;24.53;;
21416;SDS011;10869;52.238;10.716;2024-03-08T01:01:18;41.67;;;24.53;;
21416;SDS011;10869;52.238;10.716;2024-03-08T01:03:44;45.93;;;26.97;;
21416;SDS011;10869;52.238;10.716;2024-03-08T01:06:10;42.40;;;25.23;;
21416;SDS011;10869;52.238;10.716;2024-03-08T01:08:36;41.53;;;24.57;;
21416;SDS011;10869;52.238;10.716;2024-03-08T01:11:07;43.97;;;26.20;;
21416;SDS011;10869;52.238;10.716;2024-03-08T01:13:34;44.90;;;26.63;;
21416;SDS011;10869;52.238;10.716;2024-03-08T01:16:00;45.63;;;26.10;;
21416;SDS011;10869;52.238;10.716;2024-03-08T01:18:25;42.83;;;24.67;;
21416;SDS011;10869;52.238;10.716;2024-03-08T01:20:51;47.13;;;27.93;;
21416;SDS011;10869;52.238;10.716;2024-03-08T01:23:17;44.57;;;25.93;;
21416;SDS011;10869;52.238;10.716;2024-03-08T01:25:43;40.37;;;25.70;;
21416;SDS011;10869;52.238;10.716;2024-03-08T01:28:09;51.30;;;28.00;;
21416;SDS011;10869;52.238;10.716;2024-03-08T01:30:34;40.70;;;24.00;;
21416;SDS011;10869;52.238;10.716;2024-03-08T01:33:02;48.93;;;26.43;;
21416;SDS011;10869;52.238;10.716;2024-03-08T01:35:28;48.37;;;26.60;;
21416;SDS011;10869;52.238;10.716;2024-03-08T01:37:54;48.87;;;26.63;;
21416;SDS011;10869;52.238;10.716;2024-03-08T01:40:20;53.03;;;28.00;;
21416;SDS011;10869;52.238;10.716;2024-03-08T01:42:46;47.37;;;26.87;;
21416;SDS011;10869;52.238;10.716;2024-03-08T01:45:13;51.00;;;28.50;;
21416;SDS011;10869;52.238;10.716;2024-03-08T01:47:38;48.17;;;26.97;;
21416;SDS011;10869;52.238;10.716;2024-03-08T01:50:05;46.13;;;24.97;;
21416;SDS011;10869;52.238;10.716;2024-03-08T01:52:31;49.60;;;25.70;;
21416;SDS011;10869;52.238;10.716;2024-03-08T01:55:02;50.30;;;26.13;;
21416;SDS011;10869;52.238;10.716;2024-03-08T01:57:32;47.13;;;26.73;;
21416;SDS011;10869;52.238;10.716;2024-03-08T02:00:03;47.27;;;26.90;;
21416;SDS011;10869;52.238;10.716;2024-03-08T02:02:30;54.17;;;29.00;;
21416;SDS011;10869;52.238;10.716;2024-03-08T02:04:59;48.27;;;27.07;;
21416;SDS011;10869;52.238;10.716;2024-03-08T02:07:25;53.27;;;28.50;;
21416;SDS011;10869;52.238;10.716;2024-03-08T02:09:51;50.13;;;28.33;;
21416;SDS011;10869;52.238;10.716;2024-03-08T02:12:17;58.03;;;28.27;;
21416;SDS011;10869;52.238;10.716;2024-03-08T02:14:45;56.23;;;29.93;;
21416;SDS011;10869;52.238;10.716;2024-03-08T02:17:12;48.47;;;27.03;;
21416;SDS011;10869;52.238;10.716;2024-03-08T02:19:38;56.00;;;30.13;;
21416;SDS011;10869;52.238;10.716;2024-03-08T02:25:25;54.50;;;28.23;;
21416;SDS011;10869;52.238;10.716;2024-03-08T02:27:51;48.43;;;28.33;;
21416;SDS011;10869;52.238;10.716;2024-03-08T02:30:17;53.83;;;28.20;;
21416;SDS011;10869;52.238;10.716;2024-03-08T02:32:43;48.47;;;26.77;;
21416;SDS011;10869;52.238;10.716;2024-03-08T02:35:08;47.70;;;27.00;;
21416;SDS011;10869;52.238;10.716;2024-03-08T02:37:35;60.47;;;30.47;;
21416;SDS011;10869;52.238;10.716;2024-03-08T02:40:00;55.17;;;29.90;;
21416;SDS011;10869;52.238;10.716;2024-03-08T02:42:26;51.40;;;27.57;;
21416;SDS011;10869;52.238;10.716;2024-03-08T02:44:52;57.63;;;30.30;;
21416;SDS011;10869;52.238;10.716;2024-03-08T02:47:18;61.63;;;32.30;;
21416;SDS011;10869;52.238;10.716;2024-03-08T02:49:45;52.87;;;30.97;;
21416;SDS011;10869;52.238;10.716;2024-03-08T02:52:11;56.47;;;30.93;;
21416;SDS011;10869;52.238;10.716;2024-03-08T02:54:36;52.63;;;28.67;;
21416;SDS011;10869;52.238;10.716;2024-03-08T02:57:05;52.67;;;27.13;;
21416;SDS011;10869;52.238;10.716;2024-03-08T02:59:32;48.53;;;29.47;;
21416;SDS011;10869;52.238;10.716;2024-03-08T03:01:58;51.30;;;28.93;;
21416;SDS011;10869;52.238;10.716;2024-03-08T03:04:24;48.90;;;26.03;;
21416;SDS011;10869;52.238;10.716;2024-03-08T03:06:49;51.53;;;28.93;;
21416;SDS011;10869;52.238;10.716;2024-03-08T03:09:15;48.83;;;27.53;;
21416;SDS011;10869;52.238;10.716;2024-03-08T03:11:48;48.50;;;27.73;;
21416;SDS011;10869;52.238;10.716;2024-03-08T03:14:13;55.97;;;28.67;;
21416;SDS011;10869;52.238;10.716;2024-03-08T03:16:41;51.60;;;27.97;;
21416;SDS011;10869;52.238;10.716;2024-03-08T03:19:08;53.17;;;31.63;;
21416;SDS011;10869;52.238;10.716;2024-03-08T03:21:34;52.87;;;28.60;;
21416;SDS011;10869;52.238;10.716;2024-03-08T03:24:01;54.03;;;29.10;;
21416;SDS011;10869;52.238;10.716;2024-03-08T03:26:26;47.93;;;27.10;;
21416;SDS011;10869;52.238;10.716;2024-03-08T03:28:52;57.93;;;30.17;;
21416;SDS011;10869;52.238;10.716;2024-03-08T03:31:18;45.87;;;26.67;;
21416;SDS011;10869;52.238;10.716;2024-03-08T03:33:44;47.03;;;27.03;;
21416;SDS011;10869;52.238;10.716;2024-03-08T03:36:10;51.50;;;29.77;;
21416;SDS011;10869;52.238;10.716;2024-03-08T03:38:36;45.20;;;24.90;;
21416;SDS011;10869;52.238;10.716;2024-03-08T03:41:02;50.50;;;27.97;;
21416;SDS011;10869;52.238;10.716;2024-03-08T03:43:35;52.57;;;29.37;;
21416;SDS011;10869;52.238;10.716;2024-03-08T03:46:07;47.93;;;28.33;;
21416;SDS011;10869;52.238;10.716;2024-03-08T03:48:35;50.90;;;28.87;;
21416;SDS011;10869;52.238;10.716;2024-03-08T03:51:01;47.37;;;27.63;;
21416;SDS011;10869;52.238;10.716;2024-03-08T03:53:27;50.77;;;30.20;;
21416;SDS011;10869;52.238;10.716;2024-03-08T03:55:52;47.77;;;28.33;;
21416;SDS011;10869;52.238;10.716;2024-03-08T03:58:18;53.90;;;29.73;;
21416;SDS011;10869;52.238;10.716;2024-03-08T04:00:47;49.20;;;29.60;;
21416;SDS011;10869;52.238;10.716;2024-03-08T04:03:14;56.20;;;32.90;;
21416;SDS011;10869;52.238;10.716;2024-03-08T04:05:39;49.77;;;27.47;;
21416;SDS011;10869;52.238;10.716;2024-03-08T04:08:05;56.80;;;30.83;;
21416;SDS011;10869;52.238;10.716;2024-03-08T04:10:31;50.20;;;29.93;;
21416;SDS011;10869;52.238;10.716;2024-03-08T04:12:57;53.87;;;30.13;;
21416;SDS011;10869;52.238;10.716;2024-03-08T04:15:22;47.37;;;27.93;;
21416;SDS011;10869;52.238;10.716;2024-03-08T04:17:48;56.10;;;32.97;;
21416;SDS011;10869;52.238;10.716;2024-03-08T04:20:14;53.37;;;30.17;;
21416;SDS011;10869;52.238;10.716;2024-03-08T04:22:40;56.20;;;31.40;;
21416;SDS011;10869;52.238;10.716;2024-03-08T04:28:41;51.97;;;28.10;;
21416;SDS011;10869;52.238;10.716;2024-03-08T04:31:07;55.00;;;31.80;;
21416;SDS011;10869;52.238;10.716;2024-03-08T04:33:33;56.73;;;30.90;;
21416;SDS011;10869;52.238;10.716;2024-03-08T04:36:00;52.33;;;29.97;;
21416;SDS011;10869;52.238;10.716;2024-03-08T04:38:29;55.07;;;30.30;;
21416;SDS011;10869;52.238;10.716;2024-03-08T04:40:56;55.13;;;29.00;;
21416;SDS011;10869;52.238;10.716;2024-03-08T04:43:22;48.77;;;28.10;;
21416;SDS011;10869;52.238;10.716;2024-03-08T04:45:51;44.80;;;28.07;;
21416;SDS011;10869;52.238;10.716;2024-03-08T04:48:18;46.53;;;27.87;;
21416;SDS011;10869;52.238;10.716;2024-03-08T04:50:45;48.80;;;29.30;;
21416;SDS011;10869;52.238;10.716;2024-03-08T04:53:11;48.00;;;28.10;;
21416;SDS011;10869;52.238;10.716;2024-03-08T04:55:37;45.20;;;24.80;;
21416;SDS011;10869;52.238;10.716;2024-03-08T04:58:03;43.97;;;25.77;;
21416;SDS011;10869;52.238;10.716;2024-03-08T05:00:32;46.40;;;27.53;;
21416;SDS011;10869;52.238;10.716;2024-03-08T05:02:58;49.73;;;26.10;;
21416;SDS011;10869;52.238;10.716;2024-03-08T05:05:24;49.33;;;28.23;;
21416;SDS011;10869;52.238;10.716;2024-03-08T05:11:13;49.07;;;26.93;;
21416;SDS011;10869;52.238;10.716;2024-03-08T05:13:39;56.30;;;27.60;;
21416;SDS011;10869;52.238;10.716;2024-03-08T05:16:06;44.50;;;25.87;;
21416;SDS011;10869;52.238;10.716;2024-03-08T05:18:33;44.10;;;25.33;;
21416;SDS011;10869;52.238;10.716;2024-03-08T05:20:59;44.60;;;25.33;;
21416;SDS011;10869;52.238;10.716;2024-03-08T05:23:24;42.80;;;25.77;;
21416;SDS011;10869;52.238;10.716;2024-03-08T05:25:50;48.17;;;26.80;;
21416;SDS011;10869;52.238;10.716;2024-03-08T05:28:16;47.50;;;25.00;;
21416;SDS011;10869;52.238;10.716;2024-03-08T05:30:42;47.60;;;25.20;;
21416;SDS011;10869;52.238;10.716;2024-03-08T05:33:07;46.67;;;25.73;;
21416;SDS011;10869;52.238;10.716;2024-03-08T05:35:36;48.27;;;27.40;;
21416;SDS011;10869;52.238;10.716;2024-03-08T05:38:02;46.50;;;28.40;;
21416;SDS011;10869;52.238;10.716;2024-03-08T05:40:28;43.40;;;25.43;;
21416;SDS011;10869;52.238;10.716;2024-03-08T05:42:57;46.10;;;27.87;;
21416;SDS011;10869;52.238;10.716;2024-03-08T05:45:24;49.17;;;28.67;;
21416;SDS011;10869;52.238;10.716;2024-03-08T05:47:50;49.47;;;27.03;;
21416;SDS011;10869;52.238;10.716;2024-03-08T05:50:17;48.10;;;28.03;;
21416;SDS011;10869;52.238;10.716;2024-03-08T05:52:43;50.20;;;28.03;;
21416;SDS011;10869;52.238;10.716;2024-03-08T05:55:08;51.97;;;29.50;;
21416;SDS011;10869;52.238;10.716;2024-03-08T05:57:34;50.13;;;29.00;;
21416;SDS011;10869;52.238;10.716;2024-03-08T06:00:04;47.27;;;27.27;;
21416;SDS011;10869;52.238;10.716;2024-03-08T06:02:31;47.13;;;27.30;;
21416;SDS011;10869;52.238;10.716;2024-03-08T06:04:56;42.93;;;26.63;;
21416;SDS011;10869;52.238;10.716;2024-03-08T06:07:22;53.77;;;28.00;;
21416;SDS011;10869;52.238;10.716;2024-03-08T06:09:48;46.37;;;25.77;;
21416;SDS011;10869;52.238;10.716;2024-03-08T06:12:14;49.13;;;29.87;;
21416;SDS011;10869;52.238;10.716;2024-03-08T06:18:05;51.00;;;30.53;;
21416;SDS011;10869;52.238;10.716;2024-03-08T06:20:32;49.20;;;28.57;;
21416;SDS011;10869;52.238;10.716;2024-03-08T06:22:58;50.80;;;28.63;;
21416;SDS011;10869;52.238;10.716;2024-03-08T06:25:24;53.10;;;28.80;;
21416;SDS011;10869;52.238;10.716;2024-03-08T06:27:50;50.63;;;30.27;;
21416;SDS011;10869;52.238;10.716;2024-03-08T06:30:18;53.63;;;29.33;;
21416;SDS011;10869;52.238;10.716;2024-03-08T06:32:45;50.63;;;29.57;;
21416;SDS011;10869;52.238;10.716;2024-03-08T06:35:11;51.23;;;31.00;;
21416;SDS011;10869;52.238;10.716;2024-03-08T06:37:38;49.83;;;30.43;;
21416;SDS011;10869;52.238;10.716;2024-03-08T06:40:04;57.57;;;29.87;;
21416;SDS011;10869;52.238;10.716;2024-03-08T06:42:32;54.63;;;32.13;;
21416;SDS011;10869;52.238;10.716;2024-03-08T06:45:00;48.93;;;31.30;;
21416;SDS011;10869;52.238;10.716;2024-03-08T06:47:33;51.00;;;29.07;;
21416;SDS011;10869;52.238;10.716;2024-03-08T06:49:59;51.63;;;29.97;;
21416;SDS011;10869;52.238;10.716;2024-03-08T06:55:47;52.10;;;29.63;;
21416;SDS011;10869;52.238;10.716;2024-03-08T06:58:13;53.53;;;30.67;;
21416;SDS011;10869;52.238;10.716;2024-03-08T07:00:39;54.83;;;32.23;;
21416;SDS011;10869;52.238;10.716;2024-03-08T07:03:08;53.77;;;32.03;;
21416;SDS011;10869;52.238;10.716;2024-03-08T07:15:23;49.97;;;29.83;;
21416;SDS011;10869;52.238;10.716;2024-03-08T07:26:24;46.27;;;29.50;;
21416;SDS011;10869;52.238;10.716;2024-03-08T07:28:57;48.60;;;30.83;;
21416;SDS011;10869;52.238;10.716;2024-03-08T07:34:47;59.13;;;28.20;;
21416;SDS011;10869;52.238;10.716;2024-03-08T07:48:23;44.60;;;27.07;;
21416;SDS011;10869;52.238;10.716;2024-03-08T07:56:00;49.67;;;28.27;;
21416;SDS011;10869;52.238;10.716;2024-03-08T07:58:30;45.93;;;29.97;;
21416;SDS011;10869;52.238;10.716;2024-03-08T08:04:17;44.30;;;27.40;;
21416;SDS011;10869;52.238;10.716;2024-03-08T08:06:44;48.17;;;30.67;;
21416;SDS011;10869;52.238;10.716;2024-03-08T08:09:09;41.37;;;28.17;;
21416;SDS011;10869;52.238;10.716;2024-03-08T08:11:53;50.70;;;29.17;;
21416;SDS011;10869;52.238;10.716;2024-03-08T08:14:20;50.60;;;27.80;;
21416;SDS011;10869;52.238;10.716;2024-03-08T08:20:14;44.73;;;26.77;;
21416;SDS011;10869;52.238;10.716;2024-03-08T08:23:01;45.03;;;27.13;;
21416;SDS011;10869;52.238;10.716;2024-03-08T08:25:28;44.67;;;29.57;;
21416;SDS011;10869;52.238;10.716;2024-03-08T08:27:57;44.87;;;28.70;;
21416;SDS011;10869;52.238;10.716;2024-03-08T08:30:23;42.80;;;28.67;;
21416;SDS011;10869;52.238;10.716;2024-03-08T08:38:46;55.03;;;36.63;;
21416;SDS011;10869;52.238;10.716;2024-03-08T08:41:12;44.37;;;27.73;;
21416;SDS011;10869;52.238;10.716;2024-03-08T08:43:41;42.97;;;28.20;;
21416;SDS011;10869;52.238;10.716;2024-03-08T08:46:22;44.83;;;27.17;;
21416;SDS011;10869;52.238;10.716;2024-03-08T08:48:51;44.17;;;27.53;;
21416;SDS011;10869;52.238;10.716;2024-03-08T08:51:17;42.20;;;26.50;;
21416;SDS011;10869;52.238;10.716;2024-03-08T08:53:50;44.80;;;28.27;;
21416;SDS011;10869;52.238;10.716;2024-03-08T08:56:16;46.23;;;29.70;;
21416;SDS011;10869;52.238;10.716;2024-03-08T08:58:44;51.93;;;31.70;;
21416;SDS011;10869;52.238;10.716;2024-03-08T09:01:10;43.03;;;28.87;;
21416;SDS011;10869;52.238;10.716;2024-03-08T09:06:23;48.57;;;31.93;;
21416;SDS011;10869;52.238;10.716;2024-03-08T09:11:43;47.10;;;28.90;;
21416;SDS011;10869;52.238;10.716;2024-03-08T09:14:11;41.57;;;27.50;;
21416;SDS011;10869;52.238;10.716;2024-03-08T09:16:37;44.40;;;28.60;;
21416;SDS011;10869;52.238;10.716;2024-03-08T09:19:02;45.40;;;29.23;;
21416;SDS011;10869;52.238;10.716;2024-03-08T09:21:28;46.03;;;29.47;;
21416;SDS011;10869;52.238;10.716;2024-03-08T09:23:56;45.00;;;29.00;;
21416;SDS011;10869;52.238;10.716;2024-03-08T09:26:21;48.67;;;30.30;;
21416;SDS011;10869;52.238;10.716;2024-03-08T09:28:47;44.63;;;30.20;;
21416;SDS011;10869;52.238;10.716;2024-03-08T09:31:13;48.87;;;30.93;;
21416;SDS011;10869;52.238;10.716;2024-03-08T09:33:38;45.53;;;29.53;;
21416;SDS011;10869;52.238;10.716;2024-03-08T09:36:05;51.37;;;31.43;;
21416;SDS011;10869;52.238;10.716;2024-03-08T09:38:33;45.00;;;29.13;;
21416;SDS011;10869;52.238;10.716;2024-03-08T09:41:15;47.53;;;32.10;;
21416;SDS011;10869;52.238;10.716;2024-03-08T09:43:41;50.70;;;33.63;;
21416;SDS011;10869;52.238;10.716;2024-03-08T09:46:06;54.13;;;32.53;;
21416;SDS011;10869;52.238;10.716;2024-03-08T09:48:38;49.90;;;31.73;;
21416;SDS011;10869;52.238;10.716;2024-03-08T09:51:06;55.27;;;33.73;;
21416;SDS011;10869;52.238;10.716;2024-03-08T09:53:33;52.47;;;33.00;;
21416;SDS011;10869;52.238;10.716;2024-03-08T09:58:55;50.03;;;31.87;;
21416;SDS011;10869;52.238;10.716;2024-03-08T10:01:30;49.37;;;30.73;;
21416;SDS011;10869;52.238;10.716;2024-03-08T10:03:56;46.33;;;29.83;;
21416;SDS011;10869;52.238;10.716;2024-03-08T10:06:23;55.57;;;33.33;;
21416;SDS011;10869;52.238;10.716;2024-03-08T10:08:49;50.47;;;31.50;;
21416;SDS011;10869;52.238;10.716;2024-03-08T10:11:18;46.67;;;30.83;;
21416;SDS011;10869;52.238;10.716;2024-03-08T10:13:44;51.27;;;31.37;;
21416;SDS011;10869;52.238;10.716;2024-03-08T10:16:15;50.77;;;31.53;;
21416;SDS011;10869;52.238;10.716;2024-03-08T10:18:47;50.23;;;31.37;;
21416;SDS011;10869;52.238;10.716;2024-03-08T10:21:13;45.53;;;31.10;;
21416;SDS011;10869;52.238;10.716;2024-03-08T10:23:40;48.03;;;31.33;;
21416;SDS011;10869;52.238;10.716;2024-03-08T10:26:10;42.73;;;29.07;;
21416;SDS011;10869;52.238;10.716;2024-03-08T10:28:40;44.60;;;29.03;;
21416;SDS011;10869;52.238;10.716;2024-03-08T10:31:17;44.10;;;30.50;;
21416;SDS011;10869;52.238;10.716;2024-03-08T10:45:02;46.73;;;32.30;;
21416;SDS011;10869;52.238;10.716;2024-03-08T10:47:33;49.40;;;31.83;;
21416;SDS011;10869;52.238;10.716;2024-03-08T10:53:30;47.30;;;29.30;;
21416;SDS011;10869;52.238;10.716;2024-03-08T10:58:48;42.87;;;27.70;;
21416;SDS011;10869;52.238;10.716;2024-03-08T11:04:38;48.00;;;29.77;;
21416;SDS011;10869;52.238;10.716;2024-03-08T11:07:10;45.80;;;28.10;;
21416;SDS011;10869;52.238;10.716;2024-03-08T11:09:42;50.07;;;28.43;;
21416;SDS011;10869;52.238;10.716;2024-03-08T11:12:28;44.93;;;27.87;;
21416;SDS011;10869;52.238;10.716;2024-03-08T11:15:00;44.43;;;28.40;;
21416;SDS011;10869;52.238;10.716;2024-03-08T11:19:59;42.60;;;27.20;;
21416;SDS011;10869;52.238;10.716;2024-03-08T11:28:48;39.60;;;26.93;;
21416;SDS011;10869;52.238;10.716;2024-03-08T11:31:23;41.07;;;26.73;;
21416;SDS011;10869;52.238;10.716;2024-03-08T11:33:51;40.03;;;28.27;;
21416;SDS011;10869;52.238;10.716;2024-03-08T11:36:22;43.57;;;27.63;;
21416;SDS011;10869;52.238;10.716;2024-03-08T11:38:50;39.70;;;25.17;;
21416;SDS011;10869;52.238;10.716;2024-03-08T11:41:20;35.03;;;23.97;;
21416;SDS011;10869;52.238;10.716;2024-03-08T11:43:50;37.30;;;24.53;;
21416;SDS011;10869;52.238;10.716;2024-03-08T11:46:30;34.17;;;23.90;;
21416;SDS011;10869;52.238;10.716;2024-03-08T11:48:59;36.17;;;22.20;;
21416;SDS011;10869;52.238;10.716;2024-03-08T15:39:07;29.50;;;20.80;;
21416;SDS011;10869;52.238;10.716;2024-03-08T15:41:35;30.17;;;21.33;;
21416;SDS011;10869;52.238;10.716;2024-03-08T15:44:00;33.20;;;23.00;;
21416;SDS011;10869;52.238;10.716;2024-03-08T15:46:26;35.40;;;22.67;;
21416;SDS011;10869;52.238;10.716;2024-03-08T15:48:53;31.43;;;22.57;;
21416;SDS011;10869;52.238;10.716;2024-03-08T15:51:19;31.40;;;21.43;;
21416;SDS011;10869;52.238;10.716;2024-03-08T15:53:45;33.33;;;21.93;;
21416;SDS011;10869;52.238;10.716;2024-03-08T15:56:17;40.97;;;28.43;;
21416;SDS011;10869;52.238;10.716;2024-03-08T15:58:45;107.53;;;70.97;;
21416;SDS011;10869;52.238;10.716;2024-03-08T16:01:10;61.03;;;40.47;;
21416;SDS011;10869;52.238;10.716;2024-03-08T16:03:37;36.87;;;25.37;;
21416;SDS011;10869;52.238;10.716;2024-03-08T16:06:02;34.47;;;22.90;;
21416;SDS011;10869;52.238;10.716;2024-03-08T16:08:31;33.60;;;22.03;;
21416;SDS011;10869;52.238;10.716;2024-03-08T16:10:58;36.03;;;21.73;;
21416;SDS011;10869;52.238;10.716;2024-03-08T16:13:24;38.83;;;21.07;;
21416;SDS011;10869;52.238;10.716;2024-03-08T16:15:55;29.73;;;19.70;;
21416;SDS011;10869;52.238;10.716;2024-03-08T16:18:21;28.57;;;18.63;;
21416;SDS011;10869;52.238;10.716;2024-03-08T16:20:55;29.83;;;18.57;;
21416;SDS011;10869;52.238;10.716;2024-03-08T16:23:27;30.13;;;19.93;;
21416;SDS011;10869;52.238;10.716;2024-03-08T16:25:53;28.67;;;19.40;;
21416;SDS011;10869;52.238;10.716;2024-03-08T16:28:21;30.57;;;19.47;;
21416;SDS011;10869;52.238;10.716;2024-03-08T16:30:53;28.53;;;18.13;;
21416;SDS011;10869;52.238;10.716;2024-03-08T16:33:23;28.63;;;18.87;;
21416;SDS011;10869;52.238;10.716;2024-03-08T16:35:49;27.57;;;17.00;;
21416;SDS011;10869;52.238;10.716;2024-03-08T16:38:16;28.47;;;18.23;;
21416;SDS011;10869;52.238;10.716;2024-03-08T16:40:44;27.10;;;17.73;;
21416;SDS011;10869;52.238;10.716;2024-03-08T16:43:46;28.17;;;16.97;;
21416;SDS011;10869;52.238;10.716;2024-03-08T16:46:14;28.57;;;17.57;;
21416;SDS011;10869;52.238;10.716;2024-03-08T16:48:40;29.97;;;18.77;;
21416;SDS011;10869;52.238;10.716;2024-03-08T16:51:07;27.97;;;16.77;;
21416;SDS011;10869;52.238;10.716;2024-03-08T16:57:14;26.10;;;17.20;;
21416;SDS011;10869;52.238;10.716;2024-03-08T16:59:46;30.27;;;17.90;;
21416;SDS011;10869;52.238;10.716;2024-03-08T17:04:50;27.63;;;18.13;;
21416;SDS011;10869;52.238;10.716;2024-03-08T17:07:17;29.57;;;18.03;;
21416;SDS011;10869;52.238;10.716;2024-03-08T17:09:46;27.80;;;17.63;;
21416;SDS011;10869;52.238;10.716;2024-03-08T17:12:12;31.67;;;21.03;;
21416;SDS011;10869;52.238;10.716;2024-03-08T17:14:43;33.77;;;19.53;;
21416;SDS011;10869;52.238;10.716;2024-03-08T17:17:09;30.67;;;17.87;;
21416;SDS011;10869;52.238;10.716;2024-03-08T17:19:35;31.87;;;18.37;;
21416;SDS011;10869;52.238;10.716;2024-03-08T17:22:01;28.63;;;17.73;;
21416;SDS011;10869;52.238;10.716;2024-03-08T17:24:28;28.70;;;18.03;;
21416;SDS011;10869;52.238;10.716;2024-03-08T17:27:10;26.90;;;16.87;;
21416;SDS011;10869;52.238;10.716;2024-03-08T17:35:32;28.40;;;17.57;;
21416;SDS011;10869;52.238;10.716;2024-03-08T17:37:59;29.13;;;18.30;;
21416;SDS011;10869;52.238;10.716;2024-03-08T17:40:33;27.40;;;18.10;;
21416;SDS011;10869;52.238;10.716;2024-03-08T17:43:02;32.10;;;18.83;;
21416;SDS011;10869;52.238;10.716;2024-03-08T17:45:32;32.77;;;17.97;;
21416;SDS011;10869;52.238;10.716;2024-03-08T17:48:04;32.03;;;18.33;;
21416;SDS011;10869;52.238;10.716;2024-03-08T17:50:38;32.07;;;18.13;;
21416;SDS011;10869;52.238;10.716;2024-03-08T17:56:26;33.73;;;17.43;;
21416;SDS011;10869;52.238;10.716;2024-03-08T17:58:56;28.77;;;17.67;;
21416;SDS011;10869;52.238;10.716;2024-03-08T18:01:22;35.00;;;18.10;;
21416;SDS011;10869;52.238;10.716;2024-03-08T18:03:47;33.67;;;17.00;;
21416;SDS011;10869;52.238;10.716;2024-03-08T18:06:14;30.10;;;18.07;;
21416;SDS011;10869;52.238;10.716;2024-03-08T18:11:38;30.77;;;18.17;;
21416;SDS011;10869;52.238;10.716;2024-03-08T18:14:04;32.17;;;17.27;;
21416;SDS011;10869;52.238;10.716;2024-03-08T18:19:56;30.50;;;17.53;;
21416;SDS011;10869;52.238;10.716;2024-03-08T18:22:21;35.80;;;17.97;;
21416;SDS011;10869;52.238;10.716;2024-03-08T18:24:47;31.03;;;17.47;;
21416;SDS011;10869;52.238;10.716;2024-03-08T18:27:13;29.03;;;15.93;;
21416;SDS011;10869;52.238;10.716;2024-03-08T18:29:39;29.77;;;15.60;;
21416;SDS011;10869;52.238;10.716;2024-03-08T18:32:05;27.00;;;15.60;;
21416;SDS011;10869;52.238;10.716;2024-03-08T18:34:32;36.20;;;20.60;;
21416;SDS011;10869;52.238;10.716;2024-03-08T18:36:58;100.53;;;54.07;;
21416;SDS011;10869;52.238;10.716;2024-03-08T18:39:24;31.50;;;18.47;;
21416;SDS011;10869;52.238;10.716;2024-03-08T18:41:52;28.50;;;15.33;;
21416;SDS011;10869;52.238;10.716;2024-03-08T18:47:19;26.23;;;14.30;;
21416;SDS011;10869;52.238;10.716;2024-03-08T18:49:46;32.63;;;17.30;;
21416;SDS011;10869;52.238;10.716;2024-03-08T18:52:12;25.80;;;14.87;;
21416;SDS011;10869;52.238;10.716;2024-03-08T18:54:41;23.93;;;14.67;;
21416;SDS011;10869;52.238;10.716;2024-03-08T18:57:07;27.73;;;15.23;;
21416;SDS011;10869;52.238;10.716;2024-03-08T18:59:33;25.60;;;14.60;;
21416;SDS011;10869;52.238;10.716;2024-03-08T19:01:59;29.13;;;14.97;;
21416;SDS011;10869;52.238;10.716;2024-03-08T19:04:24;25.50;;;14.43;;
21416;SDS011;10869;52.238;10.716;2024-03-08T19:06:50;25.27;;;13.67;;
21416;SDS011;10869;52.238;10.716;2024-03-08T19:12:38;24.73;;;15.13;;
21416;SDS011;10869;52.238;10.716;2024-03-08T19:15:07;24.23;;;14.37;;
21416;SDS011;10869;52.238;10.716;2024-03-08T19:17:34;28.23;;;13.90;;
21416;SDS011;10869;52.238;10.716;2024-03-08T19:20:01;24.00;;;13.73;;
21416;SDS011;10869;52.238;10.716;2024-03-08T19:22:31;27.30;;;14.30;;
21416;SDS011;10869;52.238;10.716;2024-03-08T19:25:12;24.57;;;14.10;;
21416;SDS011;10869;52.238;10.716;2024-03-08T19:31:04;28.77;;;14.03;;
21416;SDS011;10869;52.238;10.716;2024-03-08T19:37:01;25.63;;;14.20;;
21416;SDS011;10869;52.238;10.716;2024-03-08T19:42:54;26.67;;;15.00;;
21416;SDS011;10869;52.238;10.716;2024-03-08T19:45:46;32.37;;;15.13;;
21416;SDS011;10869;52.238;10.716;2024-03-08T19:48:28;24.10;;;13.77;;
21416;SDS011;10869;52.238;10.716;2024-03-08T19:50:57;25.60;;;14.90;;
21416;SDS011;10869;52.238;10.716;2024-03-08T19:53:28;26.17;;;15.40;;
21416;SDS011;10869;52.238;10.716;2024-03-08T19:56:00;28.07;;;17.40;;
21416;SDS011;10869;52.238;10.716;2024-03-08T19:58:26;27.83;;;15.60;;
21416;SDS011;10869;52.238;10.716;2024-03-08T20:00:53;29.70;;;16.53;;
21416;SDS011;10869;52.238;10.716;2024-03-08T20:03:25;30.27;;;14.90;;
21416;SDS011;10869;52.238;10.716;2024-03-08T20:05:55;30.53;;;16.77;;
21416;SDS011;10869;52.238;10.716;2024-03-08T20:08:30;29.20;;;16.63;;
21416;SDS011;10869;52.238;10.716;2024-03-08T20:18:15;29.87;;;17.70;;
21416;SDS011;10869;52.238;10.716;2024-03-08T20:20:42;34.43;;;18.57;;
21416;SDS011;10869;52.238;10.716;2024-03-08T20:23:13;32.37;;;17.73;;
21416;SDS011;10869;52.238;10.716;2024-03-08T20:25:40;30.33;;;17.13;;
21416;SDS011;10869;52.238;10.716;2024-03-08T20:28:10;31.60;;;17.57;;
21416;SDS011;10869;52.238;10.716;2024-03-08T20:30:36;33.00;;;18.77;;
21416;SDS011;10869;52.238;10.716;2024-03-08T20:33:05;31.83;;;18.03;;
21416;SDS011;10869;52.238;10.716;2024-03-08T20:35:33;35.60;;;20.07;;